Archival Weather

Republic

Farmingdale, New York (KFRG)

Report from: Wednesday, February 14, 2024 5:53 AM EST
Current time: Monday, June 24, 2024 6:25 AM EDT

Current weather – Weather history – Daily summaries
Weather forecast

Temperature-0.6°C (30.9°F)
Wind chill-7.6°C (18.4°F)
Dew point-10.6°C (12.9°F)
Winds 18 kts (9.3 m/s, 20.7 mph) Northwest (310°)
Wind gusts 29 kts (14.9 m/s, 33.4 mph)
Peak wind 29 kts (14.9 m/s, 33.4 mph) Northwest (320°) at 10:53
Visibility10 mi. (16.1 km)
Clouds Scattered clouds 5,000 ft. (1,524 m)
Altimeter29.90 in.Hg (1013 mB)
Relative humidity47 %
Density altitude-1,839 ft. (-561 m)
Sea-level pressure101.3 kPa (1013 mB, 29.90 in.Hg)
Remarks Fully automated report
Automated weather observing station without precipitation discriminator
Freezing rain sensor not operating
Flight conditions Visual Meteorological Conditions
Raw dataKFRG 141053Z AUTO 31018G29KT 10SM SCT050 M01/M11 A2990 RMK AO1 PK WND 32029/1053 SLP126 T10061106 FZRANO
An error has occurred. This application may no longer respond until reloaded. Reload 🗙